sensor_id;sensor_type;location;lat;lon;timestamp;P1;durP1;ratioP1;P2;durP2;ratioP2
77748;SDS011;66938;52.084;5.228;2023-08-06T00:00:00;12.1;;;11.0;;
77748;SDS011;66938;52.084;5.228;2023-08-06T00:03:13;10.7;;;9.81;;
77748;SDS011;66938;52.084;5.228;2023-08-06T00:04:49;12.7;;;11.6;;
77748;SDS011;66938;52.084;5.228;2023-08-06T00:06:25;11.9;;;10.8;;
77748;SDS011;66938;52.084;5.228;2023-08-06T00:09:37;11.3;;;10.3;;
77748;SDS011;66938;52.084;5.228;2023-08-06T00:11:13;11.2;;;10.21;;
77748;SDS011;66938;52.084;5.228;2023-08-06T00:12:50;12.2;;;11.0;;
77748;SDS011;66938;52.084;5.228;2023-08-06T00:16:08;11.0;;;10.0;;
77748;SDS011;66938;52.084;5.228;2023-08-06T00:17:46;11.6;;;10.5;;
77748;SDS011;66938;52.084;5.228;2023-08-06T00:19:23;11.0;;;10.0;;
77748;SDS011;66938;52.084;5.228;2023-08-06T00:20:59;12.0;;;10.9;;
77748;SDS011;66938;52.084;5.228;2023-08-06T00:24:13;13.0;;;11.9;;
77748;SDS011;66938;52.084;5.228;2023-08-06T00:25:49;13.9;;;12.6;;
77748;SDS011;66938;52.084;5.228;2023-08-06T00:27:26;11.9;;;10.9;;
77748;SDS011;66938;52.084;5.228;2023-08-06T00:30:40;13.2;;;12.0;;
77748;SDS011;66938;52.084;5.228;2023-08-06T00:32:16;13.4;;;12.2;;
77748;SDS011;66938;52.084;5.228;2023-08-06T00:33:53;12.8;;;11.6;;
77748;SDS011;66938;52.084;5.228;2023-08-06T00:35:29;13.0;;;11.8;;
77748;SDS011;66938;52.084;5.228;2023-08-06T00:38:43;12.8;;;11.6;;
77748;SDS011;66938;52.084;5.228;2023-08-06T00:40:20;14.2;;;13.0;;
77748;SDS011;66938;52.084;5.228;2023-08-06T00:41:57;13.7;;;12.4;;
77748;SDS011;66938;52.084;5.228;2023-08-06T00:45:11;11.2;;;10.21;;
77748;SDS011;66938;52.084;5.228;2023-08-06T00:46:47;12.2;;;11.0;;
77748;SDS011;66938;52.084;5.228;2023-08-06T00:48:23;12.7;;;11.5;;
77748;SDS011;66938;52.084;5.228;2023-08-06T00:51:37;12.1;;;10.9;;
77748;SDS011;66938;52.084;5.228;2023-08-06T00:53:14;11.7;;;10.6;;
77748;SDS011;66938;52.084;5.228;2023-08-06T00:54:50;10.8;;;9.81;;
77748;SDS011;66938;52.084;5.228;2023-08-06T00:56:27;11.2;;;10.21;;
77748;SDS011;66938;52.084;5.228;2023-08-06T00:59:42;13.1;;;11.9;;
77748;SDS011;66938;52.084;5.228;2023-08-06T01:01:19;12.6;;;11.5;;
77748;SDS011;66938;52.084;5.228;2023-08-06T01:02:55;11.8;;;10.8;;
77748;SDS011;66938;52.084;5.228;2023-08-06T01:06:08;11.1;;;10.1;;
77748;SDS011;66938;52.084;5.228;2023-08-06T01:07:48;13.4;;;12.2;;
77748;SDS011;66938;52.084;5.228;2023-08-06T01:09:41;12.9;;;11.6;;
77748;SDS011;66938;52.084;5.228;2023-08-06T01:11:31;13.1;;;12.0;;
77748;SDS011;66938;52.084;5.228;2023-08-06T01:13:16;12.3;;;11.1;;
77748;SDS011;66938;52.084;5.228;2023-08-06T01:16:53;10.9;;;9.9;;
77748;SDS011;66938;52.084;5.228;2023-08-06T01:18:31;11.6;;;10.6;;
77748;SDS011;66938;52.084;5.228;2023-08-06T01:20:07;13.2;;;12.0;;
77748;SDS011;66938;52.084;5.228;2023-08-06T01:21:44;12.7;;;11.2;;
77748;SDS011;66938;52.084;5.228;2023-08-06T01:24:57;12.9;;;11.6;;
77748;SDS011;66938;52.084;5.228;2023-08-06T01:26:35;12.6;;;11.5;;
77748;SDS011;66938;52.084;5.228;2023-08-06T01:28:25;13.1;;;11.9;;
77748;SDS011;66938;52.084;5.228;2023-08-06T01:30:11;13.5;;;12.2;;
77748;SDS011;66938;52.084;5.228;2023-08-06T01:31:59;12.0;;;10.9;;
77748;SDS011;66938;52.084;5.228;2023-08-06T01:35:21;12.6;;;11.3;;
77748;SDS011;66938;52.084;5.228;2023-08-06T01:36:58;13.0;;;11.8;;
77748;SDS011;66938;52.084;5.228;2023-08-06T01:38:37;12.0;;;10.9;;
77748;SDS011;66938;52.084;5.228;2023-08-06T01:41:50;12.9;;;11.6;;
77748;SDS011;66938;52.084;5.228;2023-08-06T01:43:26;12.7;;;11.5;;
77748;SDS011;66938;52.084;5.228;2023-08-06T01:45:03;11.6;;;10.6;;
77748;SDS011;66938;52.084;5.228;2023-08-06T01:46:40;12.8;;;11.6;;
77748;SDS011;66938;52.084;5.228;2023-08-06T01:49:53;12.5;;;11.3;;
77748;SDS011;66938;52.084;5.228;2023-08-06T01:51:29;13.1;;;10.5;;
77748;SDS011;66938;52.084;5.228;2023-08-06T01:53:05;12.4;;;11.1;;
77748;SDS011;66938;52.084;5.228;2023-08-06T01:56:17;12.2;;;11.1;;
77748;SDS011;66938;52.084;5.228;2023-08-06T01:57:54;12.2;;;11.2;;
77748;SDS011;66938;52.084;5.228;2023-08-06T01:59:29;12.2;;;11.1;;
77748;SDS011;66938;52.084;5.228;2023-08-06T02:02:42;12.4;;;11.3;;
77748;SDS011;66938;52.084;5.228;2023-08-06T02:04:18;11.9;;;10.8;;
77748;SDS011;66938;52.084;5.228;2023-08-06T02:05:54;12.2;;;11.1;;
77748;SDS011;66938;52.084;5.228;2023-08-06T02:07:30;12.6;;;11.5;;
77748;SDS011;66938;52.084;5.228;2023-08-06T02:10:42;13.2;;;12.1;;
77748;SDS011;66938;52.084;5.228;2023-08-06T02:12:18;13.4;;;12.2;;
77748;SDS011;66938;52.084;5.228;2023-08-06T02:13:55;14.4;;;13.0;;
77748;SDS011;66938;52.084;5.228;2023-08-06T02:17:07;11.8;;;10.6;;
77748;SDS011;66938;52.084;5.228;2023-08-06T02:18:43;13.0;;;11.7;;
77748;SDS011;66938;52.084;5.228;2023-08-06T02:20:19;14.0;;;12.6;;
77748;SDS011;66938;52.084;5.228;2023-08-06T02:23:32;12.6;;;11.4;;
77748;SDS011;66938;52.084;5.228;2023-08-06T02:25:08;13.1;;;11.8;;
77748;SDS011;66938;52.084;5.228;2023-08-06T02:26:45;12.8;;;11.5;;
77748;SDS011;66938;52.084;5.228;2023-08-06T02:29:58;12.3;;;11.2;;
77748;SDS011;66938;52.084;5.228;2023-08-06T02:31:35;12.8;;;11.5;;
77748;SDS011;66938;52.084;5.228;2023-08-06T02:33:11;11.3;;;10.4;;
77748;SDS011;66938;52.084;5.228;2023-08-06T02:34:47;11.0;;;10.0;;
77748;SDS011;66938;52.084;5.228;2023-08-06T02:37:59;11.4;;;10.4;;
77748;SDS011;66938;52.084;5.228;2023-08-06T02:39:36;13.4;;;12.1;;
77748;SDS011;66938;52.084;5.228;2023-08-06T02:41:12;13.7;;;12.4;;
77748;SDS011;66938;52.084;5.228;2023-08-06T02:44:26;12.8;;;11.6;;
77748;SDS011;66938;52.084;5.228;2023-08-06T02:46:03;13.5;;;12.1;;
77748;SDS011;66938;52.084;5.228;2023-08-06T02:47:40;14.0;;;12.7;;
77748;SDS011;66938;52.084;5.228;2023-08-06T02:50:52;13.3;;;12.0;;
77748;SDS011;66938;52.084;5.228;2023-08-06T02:52:32;14.7;;;12.5;;
77748;SDS011;66938;52.084;5.228;2023-08-06T02:54:08;13.3;;;12.1;;
77748;SDS011;66938;52.084;5.228;2023-08-06T02:55:45;15.7;;;14.3;;
77748;SDS011;66938;52.084;5.228;2023-08-06T02:59:00;13.8;;;12.6;;
77748;SDS011;66938;52.084;5.228;2023-08-06T03:00:36;15.7;;;14.2;;
77748;SDS011;66938;52.084;5.228;2023-08-06T03:02:12;14.1;;;12.8;;
77748;SDS011;66938;52.084;5.228;2023-08-06T03:05:24;14.0;;;12.7;;
77748;SDS011;66938;52.084;5.228;2023-08-06T03:07:00;16.8;;;15.3;;
77748;SDS011;66938;52.084;5.228;2023-08-06T03:08:36;14.2;;;12.9;;
77748;SDS011;66938;52.084;5.228;2023-08-06T03:11:49;15.7;;;14.1;;
77748;SDS011;66938;52.084;5.228;2023-08-06T03:13:25;15.1;;;13.7;;
77748;SDS011;66938;52.084;5.228;2023-08-06T03:15:02;16.7;;;15.1;;
77748;SDS011;66938;52.084;5.228;2023-08-06T03:16:39;15.4;;;14.1;;
77748;SDS011;66938;52.084;5.228;2023-08-06T03:19:52;16.4;;;15.0;;
77748;SDS011;66938;52.084;5.228;2023-08-06T03:21:28;15.7;;;14.3;;
77748;SDS011;66938;52.084;5.228;2023-08-06T03:23:04;17.0;;;15.5;;
77748;SDS011;66938;52.084;5.228;2023-08-06T03:26:17;16.0;;;14.6;;
77748;SDS011;66938;52.084;5.228;2023-08-06T03:27:53;17.41;;;15.8;;
77748;SDS011;66938;52.084;5.228;2023-08-06T03:29:30;17.41;;;15.8;;
77748;SDS011;66938;52.084;5.228;2023-08-06T03:32:42;17.0;;;15.5;;
77748;SDS011;66938;52.084;5.228;2023-08-06T03:34:19;16.5;;;15.1;;
77748;SDS011;66938;52.084;5.228;2023-08-06T03:35:55;18.11;;;16.4;;
77748;SDS011;66938;52.084;5.228;2023-08-06T03:37:31;18.5;;;16.9;;
77748;SDS011;66938;52.084;5.228;2023-08-06T03:40:44;20.9;;;19.0;;
77748;SDS011;66938;52.084;5.228;2023-08-06T03:42:20;20.2;;;18.41;;
77748;SDS011;66938;52.084;5.228;2023-08-06T03:43:56;20.0;;;18.2;;
77748;SDS011;66938;52.084;5.228;2023-08-06T03:47:08;20.7;;;18.8;;
77748;SDS011;66938;52.084;5.228;2023-08-06T03:48:44;19.91;;;18.11;;
77748;SDS011;66938;52.084;5.228;2023-08-06T03:50:20;22.6;;;20.5;;
77748;SDS011;66938;52.084;5.228;2023-08-06T03:53:32;22.5;;;20.41;;
77748;SDS011;66938;52.084;5.228;2023-08-06T03:55:09;20.9;;;19.0;;
77748;SDS011;66938;52.084;5.228;2023-08-06T03:56:46;20.9;;;19.0;;
77748;SDS011;66938;52.084;5.228;2023-08-06T03:58:22;22.1;;;19.91;;
77748;SDS011;66938;52.084;5.228;2023-08-06T04:01:34;21.9;;;19.8;;
77748;SDS011;66938;52.084;5.228;2023-08-06T04:03:10;22.9;;;20.9;;
77748;SDS011;66938;52.084;5.228;2023-08-06T04:04:46;22.6;;;20.41;;
77748;SDS011;66938;52.084;5.228;2023-08-06T04:07:59;26.4;;;23.9;;
77748;SDS011;66938;52.084;5.228;2023-08-06T04:09:52;23.3;;;21.1;;
77748;SDS011;66938;52.084;5.228;2023-08-06T04:11:30;20.9;;;19.0;;
77748;SDS011;66938;52.084;5.228;2023-08-06T04:13:07;21.3;;;19.41;;
77748;SDS011;66938;52.084;5.228;2023-08-06T04:16:20;22.8;;;20.8;;
77748;SDS011;66938;52.084;5.228;2023-08-06T04:17:57;21.0;;;19.2;;
77748;SDS011;66938;52.084;5.228;2023-08-06T04:19:33;23.9;;;21.6;;
77748;SDS011;66938;52.084;5.228;2023-08-06T04:22:45;22.6;;;20.6;;
77748;SDS011;66938;52.084;5.228;2023-08-06T04:24:22;21.7;;;19.7;;
77748;SDS011;66938;52.084;5.228;2023-08-06T04:25:58;24.6;;;22.2;;
77748;SDS011;66938;52.084;5.228;2023-08-06T04:29:11;24.8;;;22.5;;
77748;SDS011;66938;52.084;5.228;2023-08-06T04:30:48;22.5;;;20.5;;
77748;SDS011;66938;52.084;5.228;2023-08-06T04:32:25;24.8;;;22.4;;
77748;SDS011;66938;52.084;5.228;2023-08-06T04:34:01;22.5;;;20.41;;
77748;SDS011;66938;52.084;5.228;2023-08-06T04:37:13;25.7;;;23.2;;
77748;SDS011;66938;52.084;5.228;2023-08-06T04:38:50;21.1;;;19.2;;
77748;SDS011;66938;52.084;5.228;2023-08-06T04:40:26;23.4;;;21.1;;
77748;SDS011;66938;52.084;5.228;2023-08-06T04:43:39;20.11;;;18.3;;
77748;SDS011;66938;52.084;5.228;2023-08-06T04:45:15;20.9;;;19.0;;
77748;SDS011;66938;52.084;5.228;2023-08-06T04:46:51;21.0;;;19.11;;
77748;SDS011;66938;52.084;5.228;2023-08-06T04:50:04;23.6;;;21.3;;
77748;SDS011;66938;52.084;5.228;2023-08-06T04:51:41;21.9;;;19.8;;
77748;SDS011;66938;52.084;5.228;2023-08-06T04:53:18;21.9;;;19.8;;
77748;SDS011;66938;52.084;5.228;2023-08-06T04:54:55;21.0;;;19.0;;
77748;SDS011;66938;52.084;5.228;2023-08-06T04:58:08;22.5;;;20.2;;
77748;SDS011;66938;52.084;5.228;2023-08-06T04:59:45;20.11;;;18.3;;
77748;SDS011;66938;52.084;5.228;2023-08-06T05:01:22;23.1;;;20.8;;
77748;SDS011;66938;52.084;5.228;2023-08-06T05:04:35;21.3;;;19.41;;
77748;SDS011;66938;52.084;5.228;2023-08-06T05:06:12;20.9;;;18.91;;
77748;SDS011;66938;52.084;5.228;2023-08-06T05:07:48;21.0;;;19.0;;
77748;SDS011;66938;52.084;5.228;2023-08-06T05:11:02;19.7;;;17.8;;
77748;SDS011;66938;52.084;5.228;2023-08-06T05:12:38;21.5;;;19.5;;
77748;SDS011;66938;52.084;5.228;2023-08-06T05:14:14;21.0;;;19.0;;
77748;SDS011;66938;52.084;5.228;2023-08-06T05:15:51;20.7;;;18.7;;
77748;SDS011;66938;52.084;5.228;2023-08-06T05:19:06;19.5;;;17.91;;
77748;SDS011;66938;52.084;5.228;2023-08-06T05:20:42;20.6;;;18.8;;
77748;SDS011;66938;52.084;5.228;2023-08-06T05:22:19;21.8;;;19.8;;
77748;SDS011;66938;52.084;5.228;2023-08-06T05:25:34;20.8;;;19.0;;
77748;SDS011;66938;52.084;5.228;2023-08-06T05:27:10;20.9;;;19.0;;
77748;SDS011;66938;52.084;5.228;2023-08-06T05:28:46;22.6;;;20.5;;
77748;SDS011;66938;52.084;5.228;2023-08-06T05:32:00;22.3;;;20.3;;
77748;SDS011;66938;52.084;5.228;2023-08-06T05:33:37;23.3;;;21.1;;
77748;SDS011;66938;52.084;5.228;2023-08-06T05:35:14;23.7;;;21.6;;
77748;SDS011;66938;52.084;5.228;2023-08-06T05:36:51;20.0;;;18.3;;
77748;SDS011;66938;52.084;5.228;2023-08-06T05:40:06;21.7;;;19.8;;
77748;SDS011;66938;52.084;5.228;2023-08-06T05:41:43;22.7;;;20.7;;
77748;SDS011;66938;52.084;5.228;2023-08-06T05:43:20;25.4;;;22.8;;
77748;SDS011;66938;52.084;5.228;2023-08-06T05:46:32;24.4;;;22.2;;
77748;SDS011;66938;52.084;5.228;2023-08-06T05:48:08;21.7;;;19.8;;
77748;SDS011;66938;52.084;5.228;2023-08-06T05:49:44;26.5;;;23.9;;
77748;SDS011;66938;52.084;5.228;2023-08-06T05:51:21;22.5;;;20.41;;
77748;SDS011;66938;52.084;5.228;2023-08-06T05:54:34;24.4;;;22.0;;
77748;SDS011;66938;52.084;5.228;2023-08-06T05:56:11;21.9;;;19.91;;
77748;SDS011;66938;52.084;5.228;2023-08-06T05:57:48;23.1;;;21.0;;
77748;SDS011;66938;52.084;5.228;2023-08-06T06:01:00;24.1;;;21.8;;
77748;SDS011;66938;52.084;5.228;2023-08-06T06:02:37;23.1;;;21.0;;
77748;SDS011;66938;52.084;5.228;2023-08-06T06:04:14;24.2;;;22.0;;
77748;SDS011;66938;52.084;5.228;2023-08-06T06:07:26;25.6;;;23.2;;
77748;SDS011;66938;52.084;5.228;2023-08-06T06:09:02;26.4;;;23.9;;
77748;SDS011;66938;52.084;5.228;2023-08-06T06:10:39;25.6;;;23.0;;
77748;SDS011;66938;52.084;5.228;2023-08-06T06:12:15;28.3;;;25.4;;
77748;SDS011;66938;52.084;5.228;2023-08-06T06:15:28;27.7;;;24.9;;
77748;SDS011;66938;52.084;5.228;2023-08-06T06:17:04;26.5;;;23.9;;
77748;SDS011;66938;52.084;5.228;2023-08-06T06:18:41;26.3;;;23.7;;
77748;SDS011;66938;52.084;5.228;2023-08-06T06:21:54;24.6;;;22.1;;
77748;SDS011;66938;52.084;5.228;2023-08-06T06:23:31;24.9;;;22.3;;
77748;SDS011;66938;52.084;5.228;2023-08-06T06:25:07;22.4;;;20.2;;
77748;SDS011;66938;52.084;5.228;2023-08-06T06:28:21;23.9;;;21.3;;
77748;SDS011;66938;52.084;5.228;2023-08-06T06:29:58;15.7;;;14.1;;
77748;SDS011;66938;52.084;5.228;2023-08-06T06:31:36;13.1;;;11.8;;
77748;SDS011;66938;52.084;5.228;2023-08-06T06:33:12;10.6;;;9.6;;
77748;SDS011;66938;52.084;5.228;2023-08-06T06:36:26;9.4;;;8.5;;
77748;SDS011;66938;52.084;5.228;2023-08-06T06:38:03;9.0;;;8.1;;
77748;SDS011;66938;52.084;5.228;2023-08-06T06:39:39;5.5;;;5.0;;
77748;SDS011;66938;52.084;5.228;2023-08-06T06:42:53;5.0;;;4.5;;
77748;SDS011;66938;52.084;5.228;2023-08-06T06:44:29;5.7;;;4.61;;
77748;SDS011;66938;52.084;5.228;2023-08-06T06:46:06;4.41;;;4.0;;
77748;SDS011;66938;52.084;5.228;2023-08-06T06:49:19;5.0;;;4.5;;
77748;SDS011;66938;52.084;5.228;2023-08-06T06:50:55;6.5;;;4.91;;
77748;SDS011;66938;52.084;5.228;2023-08-06T06:52:32;5.6;;;4.7;;
77748;SDS011;66938;52.084;5.228;2023-08-06T06:54:08;4.41;;;4.0;;
77748;SDS011;66938;52.084;5.228;2023-08-06T06:57:22;6.3;;;5.7;;
77748;SDS011;66938;52.084;5.228;2023-08-06T06:58:58;5.2;;;4.7;;
77748;SDS011;66938;52.084;5.228;2023-08-06T07:00:35;4.2;;;3.9;;
77748;SDS011;66938;52.084;5.228;2023-08-06T07:03:48;4.7;;;4.2;;
77748;SDS011;66938;52.084;5.228;2023-08-06T07:05:24;5.0;;;4.5;;
77748;SDS011;66938;52.084;5.228;2023-08-06T07:07:00;5.3;;;4.8;;
77748;SDS011;66938;52.084;5.228;2023-08-06T07:10:14;5.5;;;4.8;;
77748;SDS011;66938;52.084;5.228;2023-08-06T07:11:50;4.5;;;3.9;;
77748;SDS011;66938;52.084;5.228;2023-08-06T07:13:26;5.3;;;4.7;;
77748;SDS011;66938;52.084;5.228;2023-08-06T07:15:02;5.5;;;4.5;;
77748;SDS011;66938;52.084;5.228;2023-08-06T07:18:17;4.8;;;4.41;;
77748;SDS011;66938;52.084;5.228;2023-08-06T07:19:53;4.91;;;4.41;;
77748;SDS011;66938;52.084;5.228;2023-08-06T07:21:31;5.8;;;4.7;;
77748;SDS011;66938;52.084;5.228;2023-08-06T07:24:43;7.3;;;5.4;;
77748;SDS011;66938;52.084;5.228;2023-08-06T07:26:19;7.4;;;5.9;;
77748;SDS011;66938;52.084;5.228;2023-08-06T07:27:56;6.8;;;5.9;;
77748;SDS011;66938;52.084;5.228;2023-08-06T07:31:10;6.0;;;5.0;;
77748;SDS011;66938;52.084;5.228;2023-08-06T07:32:47;6.8;;;5.7;;
77748;SDS011;66938;52.084;5.228;2023-08-06T07:34:23;7.4;;;5.4;;
77748;SDS011;66938;52.084;5.228;2023-08-06T07:35:59;8.0;;;6.0;;
77748;SDS011;66938;52.084;5.228;2023-08-06T07:39:11;7.5;;;6.8;;
77748;SDS011;66938;52.084;5.228;2023-08-06T07:40:48;7.9;;;7.1;;
77748;SDS011;66938;52.084;5.228;2023-08-06T07:42:25;8.1;;;7.2;;
77748;SDS011;66938;52.084;5.228;2023-08-06T07:45:37;8.31;;;7.5;;
77748;SDS011;66938;52.084;5.228;2023-08-06T07:47:14;8.31;;;7.5;;
77748;SDS011;66938;52.084;5.228;2023-08-06T07:48:50;9.21;;;7.9;;
77748;SDS011;66938;52.084;5.228;2023-08-06T07:52:04;6.0;;;5.5;;
77748;SDS011;66938;52.084;5.228;2023-08-06T07:53:41;6.5;;;5.7;;
77748;SDS011;66938;52.084;5.228;2023-08-06T07:55:18;8.1;;;6.7;;
77748;SDS011;66938;52.084;5.228;2023-08-06T07:56:55;6.0;;;5.5;;
77748;SDS011;66938;52.084;5.228;2023-08-06T08:00:08;6.4;;;5.8;;
77748;SDS011;66938;52.084;5.228;2023-08-06T08:01:45;6.5;;;5.5;;
77748;SDS011;66938;52.084;5.228;2023-08-06T08:03:21;5.11;;;4.0;;
77748;SDS011;66938;52.084;5.228;2023-08-06T08:06:34;5.8;;;4.8;;
77748;SDS011;66938;52.084;5.228;2023-08-06T08:08:11;6.2;;;5.6;;
77748;SDS011;66938;52.084;5.228;2023-08-06T08:09:47;6.7;;;5.11;;
77748;SDS011;66938;52.084;5.228;2023-08-06T08:13:02;6.5;;;5.8;;
77748;SDS011;66938;52.084;5.228;2023-08-06T08:14:39;6.6;;;5.2;;
77748;SDS011;66938;52.084;5.228;2023-08-06T08:16:15;6.3;;;5.7;;
77748;SDS011;66938;52.084;5.228;2023-08-06T08:17:51;7.8;;;6.0;;
77748;SDS011;66938;52.084;5.228;2023-08-06T08:21:04;6.1;;;5.4;;
77748;SDS011;66938;52.084;5.228;2023-08-06T08:22:41;8.6;;;6.5;;
77748;SDS011;66938;52.084;5.228;2023-08-06T08:24:18;6.2;;;5.6;;
77748;SDS011;66938;52.084;5.228;2023-08-06T08:27:31;6.6;;;5.8;;
77748;SDS011;66938;52.084;5.228;2023-08-06T08:29:07;7.6;;;6.3;;
77748;SDS011;66938;52.084;5.228;2023-08-06T08:30:44;7.0;;;5.6;;
77748;SDS011;66938;52.084;5.228;2023-08-06T08:33:56;7.7;;;6.7;;
77748;SDS011;66938;52.084;5.228;2023-08-06T08:35:33;6.6;;;6.0;;
77748;SDS011;66938;52.084;5.228;2023-08-06T08:37:10;7.1;;;6.4;;
77748;SDS011;66938;52.084;5.228;2023-08-06T08:38:46;7.9;;;7.1;;
77748;SDS011;66938;52.084;5.228;2023-08-06T08:42:06;9.81;;;7.8;;
77748;SDS011;66938;52.084;5.228;2023-08-06T08:43:42;8.71;;;7.8;;
77748;SDS011;66938;52.084;5.228;2023-08-06T08:45:19;9.0;;;8.1;;
77748;SDS011;66938;52.084;5.228;2023-08-06T08:48:36;9.21;;;8.1;;
77748;SDS011;66938;52.084;5.228;2023-08-06T08:50:12;7.6;;;6.9;;
77748;SDS011;66938;52.084;5.228;2023-08-06T08:51:48;9.81;;;8.6;;
77748;SDS011;66938;52.084;5.228;2023-08-06T08:53:28;7.2;;;6.5;;
77748;SDS011;66938;52.084;5.228;2023-08-06T08:56:44;8.9;;;8.0;;
77748;SDS011;66938;52.084;5.228;2023-08-06T08:58:20;9.71;;;8.6;;
77748;SDS011;66938;52.084;5.228;2023-08-06T08:59:56;9.6;;;8.71;;
77748;SDS011;66938;52.084;5.228;2023-08-06T09:03:09;10.21;;;8.9;;
77748;SDS011;66938;52.084;5.228;2023-08-06T09:04:46;9.71;;;8.71;;
77748;SDS011;66938;52.084;5.228;2023-08-06T09:06:25;8.31;;;7.6;;
77748;SDS011;66938;52.084;5.228;2023-08-06T09:08:04;9.6;;;8.71;;
77748;SDS011;66938;52.084;5.228;2023-08-06T09:11:20;10.6;;;9.0;;
77748;SDS011;66938;52.084;5.228;2023-08-06T09:12:57;10.6;;;9.5;;
77748;SDS011;66938;52.084;5.228;2023-08-06T09:14:34;9.4;;;8.5;;
77748;SDS011;66938;52.084;5.228;2023-08-06T09:17:47;9.9;;;8.81;;
77748;SDS011;66938;52.084;5.228;2023-08-06T09:19:24;9.9;;;8.9;;
77748;SDS011;66938;52.084;5.228;2023-08-06T09:21:02;10.0;;;9.0;;
77748;SDS011;66938;52.084;5.228;2023-08-06T09:22:39;9.0;;;7.9;;
77748;SDS011;66938;52.084;5.228;2023-08-06T09:25:52;8.2;;;7.4;;
77748;SDS011;66938;52.084;5.228;2023-08-06T09:27:28;10.8;;;9.4;;
77748;SDS011;66938;52.084;5.228;2023-08-06T09:29:05;10.5;;;9.21;;
77748;SDS011;66938;52.084;5.228;2023-08-06T09:32:24;10.21;;;9.1;;
77748;SDS011;66938;52.084;5.228;2023-08-06T09:34:00;8.0;;;7.2;;
77748;SDS011;66938;52.084;5.228;2023-08-06T09:35:38;8.9;;;8.0;;
77748;SDS011;66938;52.084;5.228;2023-08-06T09:38:51;11.5;;;8.4;;
77748;SDS011;66938;52.084;5.228;2023-08-06T09:40:28;8.9;;;8.0;;
77748;SDS011;66938;52.084;5.228;2023-08-06T09:42:06;7.7;;;6.9;;
77748;SDS011;66938;52.084;5.228;2023-08-06T09:43:43;9.5;;;7.7;;
77748;SDS011;66938;52.084;5.228;2023-08-06T09:46:57;7.7;;;6.7;;
77748;SDS011;66938;52.084;5.228;2023-08-06T09:48:35;7.7;;;6.7;;
77748;SDS011;66938;52.084;5.228;2023-08-06T09:50:14;9.1;;;7.4;;
77748;SDS011;66938;52.084;5.228;2023-08-06T09:53:29;10.3;;;8.6;;
77748;SDS011;66938;52.084;5.228;2023-08-06T09:55:06;7.5;;;6.7;;
77748;SDS011;66938;52.084;5.228;2023-08-06T09:56:45;9.1;;;7.9;;
77748;SDS011;66938;52.084;5.228;2023-08-06T09:58:21;7.5;;;6.7;;
77748;SDS011;66938;52.084;5.228;2023-08-06T10:01:38;9.5;;;6.9;;
77748;SDS011;66938;52.084;5.228;2023-08-06T10:03:15;8.5;;;7.3;;
77748;SDS011;66938;52.084;5.228;2023-08-06T10:04:52;9.21;;;7.0;;
77748;SDS011;66938;52.084;5.228;2023-08-06T10:06:32;9.6;;;7.0;;
77748;SDS011;66938;52.084;5.228;2023-08-06T10:09:47;9.21;;;7.5;;
77748;SDS011;66938;52.084;5.228;2023-08-06T10:11:23;9.5;;;7.5;;
77748;SDS011;66938;52.084;5.228;2023-08-06T10:13:01;7.7;;;6.3;;
77748;SDS011;66938;52.084;5.228;2023-08-06T10:16:18;8.31;;;6.4;;
77748;SDS011;66938;52.084;5.228;2023-08-06T10:17:57;9.5;;;6.1;;
77748;SDS011;66938;52.084;5.228;2023-08-06T10:19:36;7.7;;;6.3;;
77748;SDS011;66938;52.084;5.228;2023-08-06T10:21:13;8.0;;;6.0;;
77748;SDS011;66938;52.084;5.228;2023-08-06T10:24:46;8.4;;;6.9;;
77748;SDS011;66938;52.084;5.228;2023-08-06T10:26:28;6.9;;;6.2;;
77748;SDS011;66938;52.084;5.228;2023-08-06T10:28:08;8.31;;;6.0;;
77748;SDS011;66938;52.084;5.228;2023-08-06T10:29:46;7.0;;;5.8;;
77748;SDS011;66938;52.084;5.228;2023-08-06T10:33:39;7.3;;;6.1;;
77748;SDS011;66938;52.084;5.228;2023-08-06T10:35:50;6.7;;;4.91;;
77748;SDS011;66938;52.084;5.228;2023-08-06T10:37:34;7.5;;;6.1;;
77748;SDS011;66938;52.084;5.228;2023-08-06T10:39:13;9.81;;;6.6;;
77748;SDS011;66938;52.084;5.228;2023-08-06T10:40:52;7.5;;;5.4;;
77748;SDS011;66938;52.084;5.228;2023-08-06T10:42:38;7.6;;;5.4;;
77748;SDS011;66938;52.084;5.228;2023-08-06T10:44:16;7.8;;;5.0;;
77748;SDS011;66938;52.084;5.228;2023-08-06T10:47:29;7.8;;;5.0;;
77748;SDS011;66938;52.084;5.228;2023-08-06T10:49:05;7.0;;;5.0;;
77748;SDS011;66938;52.084;5.228;2023-08-06T10:50:42;5.7;;;4.41;;
77748;SDS011;66938;52.084;5.228;2023-08-06T10:53:54;6.8;;;4.91;;
77748;SDS011;66938;52.084;5.228;2023-08-06T10:55:31;6.7;;;4.3;;
77748;SDS011;66938;52.084;5.228;2023-08-06T10:57:08;4.91;;;4.0;;
77748;SDS011;66938;52.084;5.228;2023-08-06T11:00:24;5.0;;;4.2;;
77748;SDS011;66938;52.084;5.228;2023-08-06T11:02:02;5.7;;;3.9;;
77748;SDS011;66938;52.084;5.228;2023-08-06T11:03:39;6.8;;;4.1;;
77748;SDS011;66938;52.084;5.228;2023-08-06T11:05:17;5.6;;;3.8;;
77748;SDS011;66938;52.084;5.228;2023-08-06T11:08:33;5.8;;;3.8;;
77748;SDS011;66938;52.084;5.228;2023-08-06T11:10:11;4.91;;;3.6;;
77748;SDS011;66938;52.084;5.228;2023-08-06T11:11:49;5.2;;;3.6;;
77748;SDS011;66938;52.084;5.228;2023-08-06T11:15:04;5.4;;;3.6;;
77748;SDS011;66938;52.084;5.228;2023-08-06T11:16:41;6.3;;;3.9;;
77748;SDS011;66938;52.084;5.228;2023-08-06T11:18:18;6.0;;;3.4;;
77748;SDS011;66938;52.084;5.228;2023-08-06T11:19:54;4.8;;;3.2;;
77748;SDS011;66938;52.084;5.228;2023-08-06T11:23:09;5.0;;;3.3;;
77748;SDS011;66938;52.084;5.228;2023-08-06T11:24:46;4.91;;;3.1;;
77748;SDS011;66938;52.084;5.228;2023-08-06T11:26:22;5.4;;;3.2;;
77748;SDS011;66938;52.084;5.228;2023-08-06T11:29:38;4.5;;;2.8;;
77748;SDS011;66938;52.084;5.228;2023-08-06T11:31:18;4.8;;;3.1;;
77748;SDS011;66938;52.084;5.228;2023-08-06T11:32:56;5.3;;;2.9;;
77748;SDS011;66938;52.084;5.228;2023-08-06T11:34:33;3.9;;;2.7;;
77748;SDS011;66938;52.084;5.228;2023-08-06T11:37:46;4.0;;;2.6;;
77748;SDS011;66938;52.084;5.228;2023-08-06T11:39:22;4.2;;;2.21;;
77748;SDS011;66938;52.084;5.228;2023-08-06T11:40:59;4.2;;;2.31;;
77748;SDS011;66938;52.084;5.228;2023-08-06T11:44:13;4.41;;;2.0;;
77748;SDS011;66938;52.084;5.228;2023-08-06T11:45:49;4.8;;;2.0;;
77748;SDS011;66938;52.084;5.228;2023-08-06T11:47:26;3.9;;;2.0;;
77748;SDS011;66938;52.084;5.228;2023-08-06T11:50:39;4.1;;;2.4;;
77748;SDS011;66938;52.084;5.228;2023-08-06T11:52:16;4.91;;;2.4;;
77748;SDS011;66938;52.084;5.228;2023-08-06T11:53:55;4.41;;;2.4;;
77748;SDS011;66938;52.084;5.228;2023-08-06T11:55:32;4.91;;;2.6;;
77748;SDS011;66938;52.084;5.228;2023-08-06T11:58:47;4.61;;;2.4;;
77748;SDS011;66938;52.084;5.228;2023-08-06T12:00:25;4.41;;;2.31;;
77748;SDS011;66938;52.084;5.228;2023-08-06T12:02:03;4.3;;;2.1;;
77748;SDS011;66938;52.084;5.228;2023-08-06T12:03:40;5.3;;;2.4;;
77748;SDS011;66938;52.084;5.228;2023-08-06T12:06:55;4.41;;;2.31;;
77748;SDS011;66938;52.084;5.228;2023-08-06T12:08:31;5.2;;;2.7;;
77748;SDS011;66938;52.084;5.228;2023-08-06T12:10:08;4.61;;;2.5;;
77748;SDS011;66938;52.084;5.228;2023-08-06T12:13:21;5.4;;;2.6;;
77748;SDS011;66938;52.084;5.228;2023-08-06T12:14:57;4.5;;;2.5;;
77748;SDS011;66938;52.084;5.228;2023-08-06T12:16:34;5.6;;;2.5;;
77748;SDS011;66938;52.084;5.228;2023-08-06T12:19:49;4.3;;;2.1;;
77748;SDS011;66938;52.084;5.228;2023-08-06T12:21:25;4.8;;;2.21;;
77748;SDS011;66938;52.084;5.228;2023-08-06T12:23:01;3.6;;;2.0;;
77748;SDS011;66938;52.084;5.228;2023-08-06T12:24:37;5.11;;;2.21;;
77748;SDS011;66938;52.084;5.228;2023-08-06T12:27:49;4.5;;;2.0;;
77748;SDS011;66938;52.084;5.228;2023-08-06T12:29:27;4.7;;;2.1;;
77748;SDS011;66938;52.084;5.228;2023-08-06T12:31:03;3.8;;;2.31;;
77748;SDS011;66938;52.084;5.228;2023-08-06T12:34:16;4.3;;;2.21;;
77748;SDS011;66938;52.084;5.228;2023-08-06T12:35:52;4.61;;;2.31;;
77748;SDS011;66938;52.084;5.228;2023-08-06T12:37:28;4.61;;;2.1;;
77748;SDS011;66938;52.084;5.228;2023-08-06T12:40:41;3.5;;;2.21;;
77748;SDS011;66938;52.084;5.228;2023-08-06T12:42:17;4.0;;;2.1;;
77748;SDS011;66938;52.084;5.228;2023-08-06T12:43:53;3.4;;;2.21;;